Time;durP1;ratioP1;P1;durP2;ratioP2;P2;SDS_P1;SDS_P2;PMS_P1;PMS_P2;Temp;Humidity;BMP_temperature;BMP_pressure;BME280_temperature;BME280_humidity;BME280_pressure;Samples;Min_cycle;Max_cycle;Signal;HPM_P1;HPM_P2
2023/09/08 00:00:14;;;;;;;;;;;18.50;99.90;;;;;;7321929;19;9782;-71
2023/09/08 00:02:43;;;;;;;;;;;18.40;99.90;;;;;;7320517;19;9146;-71
2023/09/08 00:05:13;;;;;;;;;;;18.40;99.90;;;;;;7320744;19;9147;-71
2023/09/08 00:07:42;;;;;;;;;;;18.40;99.90;;;;;;7319978;19;10417;-71
2023/09/08 00:10:12;;;;;;;;;;;18.30;99.90;;;;;;7317124;19;9163;-71
2023/09/08 00:12:42;;;;;;;;;;;18.30;99.90;;;;;;7316426;19;11132;-71
2023/09/08 00:15:35;;;;;;;;;;;18.30;99.90;;;;;;7318831;19;11038;-71
2023/09/08 00:18:04;;;;;;;;;;;18.30;99.90;;;;;;7319208;19;9254;-71
2023/09/08 00:20:34;;;;;;;;;;;18.30;99.90;;;;;;7316748;19;9191;-71
2023/09/08 00:23:03;;;;;;;;;;;18.30;99.90;;;;;;7318728;19;9285;-71
2023/09/08 00:25:32;;;;;;;;;;;18.10;99.90;;;;;;7315884;19;9459;-71
2023/09/08 00:28:01;;;;;;;;;;;18.10;99.90;;;;;;7319179;19;9457;-71
2023/09/08 00:30:33;;;;;;;;;;;18.10;99.90;;;;;;7317136;19;9245;-71
2023/09/08 00:33:02;;;;;;;;;;;18.00;99.90;;;;;;7318903;19;9249;-71
2023/09/08 00:35:31;;;;;;;;;;;18.00;99.90;;;;;;7317989;19;9489;-71
2023/09/08 00:38:00;;;;;;;;;;;18.00;99.90;;;;;;7317617;19;9287;-71
2023/09/08 00:40:29;;;;;;;;;;;18.00;99.90;;;;;;7320045;19;9226;-70
2023/09/08 00:43:01;;;;;;;;;;;18.00;99.90;;;;;;7316607;19;9544;-71
2023/09/08 00:45:35;;;;;;;;;;;17.90;99.90;;;;;;7316176;19;9265;-71
2023/09/08 00:48:04;;;;;;;;;;;17.80;99.90;;;;;;7318619;19;10653;-71
2023/09/08 00:50:37;;;;;;;;;;;17.70;99.90;;;;;;7317556;19;9230;-71
2023/09/08 00:53:07;;;;;;;;;;;17.70;99.90;;;;;;7310642;19;9429;-71
2023/09/08 00:55:37;;;;;;;;;;;17.70;99.90;;;;;;7316588;19;9397;-71
2023/09/08 00:58:06;;;;;;;;;;;17.60;99.90;;;;;;7318456;19;10388;-71
2023/09/08 01:00:38;;;;;;;;;;;17.70;99.90;;;;;;7319058;19;9168;-71
2023/09/08 01:03:07;;;;;;;;;;;17.80;99.90;;;;;;7315682;19;9713;-71
2023/09/08 01:05:37;;;;;;;;;;;17.70;99.90;;;;;;7316589;19;9273;-71
2023/09/08 01:08:26;;;;;;;;;;;17.80;99.90;;;;;;7315182;19;9214;-71
2023/09/08 01:10:56;;;;;;;;;;;17.90;99.90;;;;;;7314449;19;11038;-71
2023/09/08 01:13:25;;;;;;;;;;;17.80;99.90;;;;;;7316656;19;9500;-71
2023/09/08 01:15:57;;;;;;;;;;;17.80;99.90;;;;;;7317350;19;9656;-71
2023/09/08 01:18:26;;;;;;;;;;;17.70;99.90;;;;;;7318372;19;9309;-71
2023/09/08 01:21:29;;;;;;;;;;;17.70;99.90;;;;;;7317148;19;10662;-71
2023/09/08 01:24:15;;;;;;;;;;;17.70;99.90;;;;;;7316645;19;9273;-71
2023/09/08 01:26:47;;;;;;;;;;;17.60;99.90;;;;;;7320652;19;9470;-71
2023/09/08 01:29:19;;;;;;;;;;;17.50;99.90;;;;;;7316335;19;8945;-70
2023/09/08 01:31:48;;;;;;;;;;;17.50;99.90;;;;;;7317926;19;9230;-71
2023/09/08 01:34:17;;;;;;;;;;;17.40;99.90;;;;;;7317738;19;9500;-71
2023/09/08 01:36:48;;;;;;;;;;;17.40;99.90;;;;;;7318703;19;9257;-71
2023/09/08 01:39:17;;;;;;;;;;;17.30;99.90;;;;;;7312940;19;9394;-70
2023/09/08 01:41:48;;;;;;;;;;;17.20;99.90;;;;;;7314796;19;9461;-71
2023/09/08 01:44:17;;;;;;;;;;;17.20;99.90;;;;;;7315177;19;9186;-71
2023/09/08 01:46:46;;;;;;;;;;;17.20;99.90;;;;;;7319215;19;9407;-71
2023/09/08 01:49:15;;;;;;;;;;;17.10;99.90;;;;;;7315755;19;9200;-71
2023/09/08 01:51:44;;;;;;;;;;;17.20;99.90;;;;;;7311751;19;9435;-71
2023/09/08 01:54:13;;;;;;;;;;;17.20;99.90;;;;;;7314267;19;10394;-71
2023/09/08 01:56:42;;;;;;;;;;;17.20;99.90;;;;;;7316364;19;9261;-71
2023/09/08 01:59:13;;;;;;;;;;;17.10;99.90;;;;;;7315773;19;9446;-71
2023/09/08 02:01:42;;;;;;;;;;;16.90;99.90;;;;;;7313727;19;9287;-71
2023/09/08 02:04:31;;;;;;;;;;;16.90;99.90;;;;;;7314998;19;8982;-71
2023/09/08 02:07:03;;;;;;;;;;;16.90;99.90;;;;;;7316089;19;9616;-71
2023/09/08 02:09:36;;;;;;;;;;;16.90;99.90;;;;;;7324018;19;9262;-71
2023/09/08 02:12:07;;;;;;;;;;;16.80;99.90;;;;;;7324101;19;9238;-71
2023/09/08 02:14:38;;;;;;;;;;;16.90;99.90;;;;;;7322785;19;9488;-70
2023/09/08 02:17:07;;;;;;;;;;;16.90;99.90;;;;;;7324948;19;9158;-71
2023/09/08 02:19:36;;;;;;;;;;;17.00;99.90;;;;;;7323892;19;9253;-71
2023/09/08 02:22:06;;;;;;;;;;;16.90;99.90;;;;;;7324641;19;9285;-71
2023/09/08 02:24:35;;;;;;;;;;;16.90;99.90;;;;;;7320146;19;9144;-71
2023/09/08 02:27:04;;;;;;;;;;;16.80;99.90;;;;;;7323881;19;9135;-71
2023/09/08 02:29:35;;;;;;;;;;;16.80;99.90;;;;;;7318610;19;11545;-70
2023/09/08 02:32:07;;;;;;;;;;;16.90;99.90;;;;;;7323909;19;10507;-71
2023/09/08 02:34:38;;;;;;;;;;;16.90;99.90;;;;;;7317865;19;9269;-71
2023/09/08 02:37:07;;;;;;;;;;;16.90;99.90;;;;;;7320058;19;9438;-71
2023/09/08 02:39:56;;;;;;;;;;;16.80;99.90;;;;;;7322291;19;9635;-71
2023/09/08 02:42:45;;;;;;;;;;;16.70;99.90;;;;;;7317819;19;9745;-71
2023/09/08 02:45:14;;;;;;;;;;;16.70;99.90;;;;;;7320503;19;9647;-71
2023/09/08 02:47:46;;;;;;;;;;;16.60;99.90;;;;;;7323840;19;9506;-71
2023/09/08 02:50:14;;;;;;;;;;;16.50;99.90;;;;;;7318648;19;9571;-71
2023/09/08 02:52:43;;;;;;;;;;;16.30;99.90;;;;;;7324831;19;10218;-71
2023/09/08 02:55:12;;;;;;;;;;;16.20;99.90;;;;;;7322613;19;9162;-71
2023/09/08 02:57:41;;;;;;;;;;;16.10;99.90;;;;;;7323085;19;9262;-71
2023/09/08 03:00:11;;;;;;;;;;;16.20;99.90;;;;;;7315410;19;10766;-71
2023/09/08 03:02:40;;;;;;;;;;;16.20;99.90;;;;;;7320985;19;9352;-70
2023/09/08 03:05:12;;;;;;;;;;;16.10;99.90;;;;;;7319337;19;9388;-71
2023/09/08 03:08:02;;;;;;;;;;;16.20;99.90;;;;;;7319425;19;9214;-71
2023/09/08 03:10:33;;;;;;;;;;;16.10;99.90;;;;;;7315809;19;9198;-71
2023/09/08 03:13:22;;;;;;;;;;;16.10;99.90;;;;;;7317739;19;9302;-71
2023/09/08 03:15:51;;;;;;;;;;;16.00;99.90;;;;;;7324128;19;9391;-71
2023/09/08 03:18:20;;;;;;;;;;;15.90;99.90;;;;;;7318176;19;9521;-70
2023/09/08 03:20:54;;;;;;;;;;;15.90;99.90;;;;;;7320084;19;9411;-71
2023/09/08 03:23:23;;;;;;;;;;;15.80;99.90;;;;;;7322951;19;9407;-71
2023/09/08 03:25:52;;;;;;;;;;;15.90;99.90;;;;;;7320769;19;9899;-71
2023/09/08 03:28:21;;;;;;;;;;;15.70;99.90;;;;;;7319830;19;9489;-71
2023/09/08 03:30:50;;;;;;;;;;;15.70;99.90;;;;;;7319942;19;9514;-71
2023/09/08 03:33:19;;;;;;;;;;;15.70;99.90;;;;;;7322131;19;9191;-71
2023/09/08 03:35:48;;;;;;;;;;;15.70;99.90;;;;;;7321341;19;9097;-71
2023/09/08 03:38:20;;;;;;;;;;;15.60;99.90;;;;;;7318159;19;9405;-71
2023/09/08 03:40:49;;;;;;;;;;;15.60;99.90;;;;;;7319230;19;9249;-71
2023/09/08 03:43:18;;;;;;;;;;;15.70;99.90;;;;;;7321371;19;9506;-71
2023/09/08 03:45:47;;;;;;;;;;;15.70;99.90;;;;;;7320759;19;9190;-71
2023/09/08 03:48:16;;;;;;;;;;;15.80;99.90;;;;;;7319825;19;9648;-71
2023/09/08 03:50:45;;;;;;;;;;;15.70;99.90;;;;;;7319366;19;9261;-71
2023/09/08 03:53:14;;;;;;;;;;;15.80;99.90;;;;;;7320501;19;9246;-71
2023/09/08 03:56:06;;;;;;;;;;;15.70;99.90;;;;;;7312747;19;9390;-71
2023/09/08 03:58:35;;;;;;;;;;;15.60;99.90;;;;;;7318270;19;9271;-71
2023/09/08 04:01:04;;;;;;;;;;;15.70;99.90;;;;;;7316330;19;9348;-71
2023/09/08 04:03:33;;;;;;;;;;;15.60;99.90;;;;;;7318119;19;9475;-70
2023/09/08 04:06:02;;;;;;;;;;;15.70;99.90;;;;;;7313525;19;9380;-71
2023/09/08 04:08:32;;;;;;;;;;;15.70;99.90;;;;;;7306746;19;9395;-71
2023/09/08 04:11:01;;;;;;;;;;;15.70;99.90;;;;;;7315505;19;10825;-71
2023/09/08 04:13:33;;;;;;;;;;;15.70;99.90;;;;;;7319994;19;9384;-71
2023/09/08 04:16:02;;;;;;;;;;;15.70;99.90;;;;;;7321654;19;9583;-71
2023/09/08 04:18:31;;;;;;;;;;;15.70;99.90;;;;;;7318765;19;9245;-71
2023/09/08 04:21:00;;;;;;;;;;;15.60;99.90;;;;;;7319140;19;9332;-70
2023/09/08 04:23:29;;;;;;;;;;;15.60;99.90;;;;;;7319684;19;9262;-71
2023/09/08 04:25:58;;;;;;;;;;;15.60;99.90;;;;;;7318470;19;9316;-71
2023/09/08 04:28:26;;;;;;;;;;;15.50;99.90;;;;;;7318918;19;10432;-70
2023/09/08 04:30:59;;;;;;;;;;;15.40;99.90;;;;;;7310886;19;9057;-71
2023/09/08 04:33:47;;;;;;;;;;;15.40;99.90;;;;;;7316474;19;9570;-70
2023/09/08 04:36:17;;;;;;;;;;;15.40;99.90;;;;;;7321246;19;9186;-70
2023/09/08 04:38:45;;;;;;;;;;;15.40;99.90;;;;;;7309018;19;9245;-71
2023/09/08 04:41:14;;;;;;;;;;;15.40;99.90;;;;;;7308064;19;9634;-70
2023/09/08 04:43:43;;;;;;;;;;;15.30;99.90;;;;;;7312920;19;8945;-70
2023/09/08 04:46:15;;;;;;;;;;;15.40;99.90;;;;;;7307192;19;10700;-70
2023/09/08 04:48:44;;;;;;;;;;;15.20;99.90;;;;;;7317157;19;9245;-71
2023/09/08 04:51:33;;;;;;;;;;;15.20;99.90;;;;;;7297792;19;9451;-70
2023/09/08 04:54:02;;;;;;;;;;;15.30;99.90;;;;;;7314119;19;9218;-70
2023/09/08 04:56:31;;;;;;;;;;;15.20;99.90;;;;;;7313393;19;9269;-70
2023/09/08 04:59:00;;;;;;;;;;;15.20;99.90;;;;;;7313903;19;9254;-70
2023/09/08 05:01:32;;;;;;;;;;;15.20;99.90;;;;;;7301876;19;9394;-70
2023/09/08 05:04:22;;;;;;;;;;;15.10;99.90;;;;;;7305446;19;10259;-70
2023/09/08 05:06:51;;;;;;;;;;;15.00;99.90;;;;;;7305921;19;9319;-70
2023/09/08 05:09:21;;;;;;;;;;;14.90;99.90;;;;;;7313358;19;11489;-71
2023/09/08 05:11:50;;;;;;;;;;;14.90;99.90;;;;;;7301271;19;9670;-71
2023/09/08 05:14:19;;;;;;;;;;;14.80;99.90;;;;;;7316042;19;9266;-71
2023/09/08 05:16:55;;;;;;;;;;;14.90;99.90;;;;;;7315661;19;9624;-71
2023/09/08 05:19:25;;;;;;;;;;;14.80;99.90;;;;;;7314065;19;8944;-70
2023/09/08 05:21:56;;;;;;;;;;;14.90;99.90;;;;;;7315558;19;9234;-71
2023/09/08 05:24:26;;;;;;;;;;;14.90;99.90;;;;;;7318847;19;10162;-70
2023/09/08 05:26:56;;;;;;;;;;;15.00;99.90;;;;;;7318580;19;9340;-70
2023/09/08 05:29:25;;;;;;;;;;;14.90;99.90;;;;;;7312928;19;10839;-70
2023/09/08 05:31:56;;;;;;;;;;;14.90;99.90;;;;;;7317780;19;9188;-70
2023/09/08 05:34:25;;;;;;;;;;;14.80;99.90;;;;;;7316955;19;9146;-70
2023/09/08 05:36:54;;;;;;;;;;;14.90;99.90;;;;;;7316307;19;9174;-70
2023/09/08 05:39:23;;;;;;;;;;;15.00;99.90;;;;;;7312393;19;8944;-71
2023/09/08 05:41:52;;;;;;;;;;;14.90;99.90;;;;;;7313491;19;9506;-70
2023/09/08 05:44:21;;;;;;;;;;;14.90;99.90;;;;;;7322778;19;10664;-71
2023/09/08 05:46:50;;;;;;;;;;;15.00;99.90;;;;;;7322015;19;11128;-70
2023/09/08 05:49:22;;;;;;;;;;;15.00;99.90;;;;;;7321827;19;9179;-70
2023/09/08 05:51:51;;;;;;;;;;;15.00;99.90;;;;;;7325988;19;9443;-70
2023/09/08 05:54:20;;;;;;;;;;;14.90;99.90;;;;;;7308436;19;9111;-73
2023/09/08 05:56:49;;;;;;;;;;;15.00;99.90;;;;;;7285064;19;9547;-75
2023/09/08 05:59:18;;;;;;;;;;;15.20;99.90;;;;;;7314036;19;9362;-88
2023/09/08 06:01:47;;;;;;;;;;;15.30;99.90;;;;;;7320586;19;9218;-73
2023/09/08 06:04:16;;;;;;;;;;;15.40;99.90;;;;;;7321048;19;9283;-74
2023/09/08 06:06:48;;;;;;;;;;;15.50;99.90;;;;;;7319914;19;9564;-70
2023/09/08 06:09:37;;;;;;;;;;;15.50;99.90;;;;;;7318655;19;9245;-69
2023/09/08 06:12:08;;;;;;;;;;;15.60;99.90;;;;;;7318187;19;9696;-70
2023/09/08 06:14:37;;;;;;;;;;;15.70;99.90;;;;;;7322501;19;9274;-69
2023/09/08 06:17:06;;;;;;;;;;;15.90;99.90;;;;;;7323782;19;10681;-70
2023/09/08 06:19:35;;;;;;;;;;;16.10;99.90;;;;;;7321443;19;9312;-72
2023/09/08 06:22:06;;;;;;;;;;;16.20;99.90;;;;;;7324561;19;9197;-71
2023/09/08 06:24:35;;;;;;;;;;;16.40;99.90;;;;;;7318353;19;9413;-71
2023/09/08 06:27:24;;;;;;;;;;;16.40;99.90;;;;;;7320580;19;9254;-70
2023/09/08 06:29:53;;;;;;;;;;;16.50;99.90;;;;;;7319955;19;9243;-71
2023/09/08 06:32:22;;;;;;;;;;;16.60;99.90;;;;;;7322438;19;9231;-71
2023/09/08 06:34:51;;;;;;;;;;;16.70;99.90;;;;;;7315441;19;9277;-70
2023/09/08 06:37:23;;;;;;;;;;;16.80;99.90;;;;;;7313457;19;9527;-70
2023/09/08 06:39:52;;;;;;;;;;;16.90;99.90;;;;;;7320480;19;9210;-70
2023/09/08 06:42:21;;;;;;;;;;;17.10;99.90;;;;;;7317708;19;9261;-71
2023/09/08 06:44:50;;;;;;;;;;;17.20;99.90;;;;;;7322220;19;9479;-70
2023/09/08 06:47:19;;;;;;;;;;;17.30;99.90;;;;;;7315163;19;9390;-71
2023/09/08 06:49:48;;;;;;;;;;;17.30;99.90;;;;;;7318140;19;9495;-68
2023/09/08 06:52:39;;;;;;;;;;;17.40;99.90;;;;;;7315742;19;9481;-71
2023/09/08 06:55:09;;;;;;;;;;;17.50;99.90;;;;;;7314710;19;9230;-71
2023/09/08 06:57:38;;;;;;;;;;;17.60;99.90;;;;;;7316198;19;9282;-71
2023/09/08 07:00:11;;;;;;;;;;;17.70;99.90;;;;;;7320788;19;9510;-71
2023/09/08 07:02:40;;;;;;;;;;;17.80;99.90;;;;;;7322821;19;9303;-71
2023/09/08 07:05:09;;;;;;;;;;;17.90;99.90;;;;;;7314415;19;9282;-71
2023/09/08 07:07:41;;;;;;;;;;;18.10;99.90;;;;;;7313702;19;9290;-71
2023/09/08 07:10:11;;;;;;;;;;;18.30;99.90;;;;;;7315193;19;9266;-71
2023/09/08 07:12:41;;;;;;;;;;;18.50;99.90;;;;;;7312901;19;11121;-71
2023/09/08 07:15:11;;;;;;;;;;;18.60;99.90;;;;;;7319138;19;9369;-71
2023/09/08 07:17:40;;;;;;;;;;;18.90;99.90;;;;;;7322936;19;9181;-71
2023/09/08 07:20:10;;;;;;;;;;;19.10;99.90;;;;;;7322781;19;9275;-71
2023/09/08 07:22:42;;;;;;;;;;;19.50;99.90;;;;;;7320261;19;9481;-71
2023/09/08 07:25:12;;;;;;;;;;;19.90;99.90;;;;;;7320083;19;9114;-71
2023/09/08 07:27:41;;;;;;;;;;;20.20;99.90;;;;;;7318186;19;9386;-71
2023/09/08 07:30:11;;;;;;;;;;;20.40;99.90;;;;;;7313945;19;10472;-71
2023/09/08 07:32:40;;;;;;;;;;;20.70;99.90;;;;;;7318721;19;9526;-71
2023/09/08 07:35:13;;;;;;;;;;;20.80;99.90;;;;;;7315700;19;9477;-71
2023/09/08 07:37:45;;;;;;;;;;;21.00;99.90;;;;;;7317425;19;9361;-71
2023/09/08 07:40:14;;;;;;;;;;;21.20;99.90;;;;;;7316848;19;9263;-72
2023/09/08 07:42:43;;;;;;;;;;;21.40;99.90;;;;;;7321064;19;9370;-71
2023/09/08 07:45:12;;;;;;;;;;;21.60;99.90;;;;;;7321635;19;9541;-72
2023/09/08 07:47:43;;;;;;;;;;;21.80;99.90;;;;;;7320228;19;9228;-72
2023/09/08 07:50:24;;;;;;;;;;;22.00;99.90;;;;;;7324260;19;9226;-72
2023/09/08 07:52:58;;;;;;;;;;;22.00;99.90;;;;;;7318182;19;9510;-69
2023/09/08 07:55:28;;;;;;;;;;;22.00;99.90;;;;;;7322509;19;9218;-70
2023/09/08 07:58:00;;;;;;;;;;;22.00;99.90;;;;;;7318581;19;9241;-73
2023/09/08 08:00:29;;;;;;;;;;;22.30;99.90;;;;;;7314701;19;9234;-73
2023/09/08 08:03:18;;;;;;;;;;;22.40;99.90;;;;;;7320287;19;9181;-72
2023/09/08 08:05:47;;;;;;;;;;;22.60;99.90;;;;;;7319149;19;9000;-72
2023/09/08 08:08:18;;;;;;;;;;;22.60;99.90;;;;;;7320766;19;9458;-73
2023/09/08 08:10:47;;;;;;;;;;;22.70;99.90;;;;;;7318641;19;9226;-73
2023/09/08 08:13:17;;;;;;;;;;;22.60;99.90;;;;;;7313096;19;10989;-72
2023/09/08 08:15:47;;;;;;;;;;;22.60;99.90;;;;;;7320358;19;9585;-72
2023/09/08 08:18:16;;;;;;;;;;;22.50;99.90;;;;;;7318648;19;10253;-72
2023/09/08 08:20:45;;;;;;;;;;;22.40;99.90;;;;;;7318829;19;9144;-72
2023/09/08 08:23:14;;;;;;;;;;;22.50;99.90;;;;;;7316734;19;9487;-72
2023/09/08 08:25:46;;;;;;;;;;;22.50;99.90;;;;;;7319853;19;9254;-72
2023/09/08 08:28:35;;;;;;;;;;;22.60;99.90;;;;;;7319484;19;9172;-72
2023/09/08 08:31:05;;;;;;;;;;;22.70;99.90;;;;;;7320301;19;9368;-71
2023/09/08 08:33:34;;;;;;;;;;;22.90;99.90;;;;;;7319136;19;10459;-72
2023/09/08 08:36:23;;;;;;;;;;;22.90;99.90;;;;;;7320324;19;9336;-72
2023/09/08 08:39:12;;;;;;;;;;;23.00;99.90;;;;;;7316709;19;9456;-72
2023/09/08 08:41:44;;;;;;;;;;;23.10;99.90;;;;;;7321803;19;9246;-73
2023/09/08 08:44:13;;;;;;;;;;;23.20;99.90;;;;;;7316200;19;12378;-72
2023/09/08 08:46:44;;;;;;;;;;;23.20;99.90;;;;;;7320176;19;9255;-72
2023/09/08 08:49:35;;;;;;;;;;;23.30;99.90;;;;;;7318391;19;9553;-72
2023/09/08 08:52:07;;;;;;;;;;;23.40;99.90;;;;;;7321062;19;9241;-72
2023/09/08 08:54:37;;;;;;;;;;;23.50;99.90;;;;;;7315603;19;9697;-72
2023/09/08 08:57:10;;;;;;;;;;;23.60;99.90;;;;;;7314189;19;10312;-72
2023/09/08 08:59:41;;;;;;;;;;;23.70;99.90;;;;;;7318914;19;9257;-72
2023/09/08 09:02:14;;;;;;;;;;;23.80;99.90;;;;;;7317772;19;9122;-72
2023/09/08 09:04:44;;;;;;;;;;;24.00;99.90;;;;;;7307339;19;9164;-71
2023/09/08 09:07:15;;;;;;;;;;;24.10;99.90;;;;;;7315902;19;11829;-72
2023/09/08 09:09:44;;;;;;;;;;;24.20;99.00;;;;;;7313676;19;9052;-71
2023/09/08 09:12:17;;;;;;;;;;;24.30;97.90;;;;;;7319573;19;9351;-71
2023/09/08 09:14:49;;;;;;;;;;;24.40;97.40;;;;;;7315000;19;9403;-72
2023/09/08 09:17:19;;;;;;;;;;;24.40;96.00;;;;;;7314691;19;9241;-71
2023/09/08 09:19:48;;;;;;;;;;;24.40;96.50;;;;;;7312938;19;10601;-70
2023/09/08 09:22:23;;;;;;;;;;;24.60;95.70;;;;;;7312278;19;9443;-71
2023/09/08 09:24:52;;;;;;;;;;;24.70;95.40;;;;;;7312679;19;10159;-71
2023/09/08 09:27:24;;;;;;;;;;;24.80;94.80;;;;;;7306658;19;9182;-71
2023/09/08 09:29:53;;;;;;;;;;;24.80;94.50;;;;;;7312742;19;9511;-71
2023/09/08 09:32:29;;;;;;;;;;;24.80;94.20;;;;;;7312565;19;9532;-71
2023/09/08 09:35:19;;;;;;;;;;;25.00;94.10;;;;;;7309865;19;9446;-71
2023/09/08 09:37:50;;;;;;;;;;;25.10;93.40;;;;;;7314169;19;9342;-70
2023/09/08 09:40:21;;;;;;;;;;;25.10;92.90;;;;;;7312183;19;9411;-70
2023/09/08 09:42:53;;;;;;;;;;;25.20;92.70;;;;;;7308551;19;9276;-71
2023/09/08 09:45:22;;;;;;;;;;;25.20;92.10;;;;;;7315507;19;9322;-70
2023/09/08 09:47:53;;;;;;;;;;;25.30;92.70;;;;;;7312056;19;9246;-70
2023/09/08 09:50:31;;;;;;;;;;;25.30;92.30;;;;;;7307226;19;9157;-71
2023/09/08 09:53:02;;;;;;;;;;;25.50;91.70;;;;;;7311332;19;9230;-71
2023/09/08 09:55:31;;;;;;;;;;;25.50;91.70;;;;;;7316533;19;9493;-71
2023/09/08 09:58:05;;;;;;;;;;;25.60;91.40;;;;;;7318347;19;9201;-70
2023/09/08 10:00:36;;;;;;;;;;;25.70;90.70;;;;;;7313820;19;9307;-71
2023/09/08 10:03:07;;;;;;;;;;;25.80;91.10;;;;;;7319384;19;9258;-71
2023/09/08 10:05:37;;;;;;;;;;;25.90;90.70;;;;;;7315502;19;9384;-71
2023/09/08 10:08:07;;;;;;;;;;;26.00;90.00;;;;;;7306235;19;9502;-72
2023/09/08 10:10:37;;;;;;;;;;;26.10;89.80;;;;;;7308347;19;9407;-71
2023/09/08 10:13:11;;;;;;;;;;;26.20;90.40;;;;;;7316278;19;9234;-71
2023/09/08 10:15:42;;;;;;;;;;;26.30;82.70;;;;;;7314513;19;9609;-73
2023/09/08 10:18:17;;;;;;;;;;;26.40;83.60;;;;;;7313356;19;9298;-72
2023/09/08 10:20:48;;;;;;;;;;;26.40;83.60;;;;;;7319243;19;9227;-71
2023/09/08 10:23:30;;;;;;;;;;;26.40;80.90;;;;;;7314206;19;9158;-71
2023/09/08 10:26:05;;;;;;;;;;;26.50;79.70;;;;;;7318260;19;9510;-72
2023/09/08 10:28:39;;;;;;;;;;;26.60;82.20;;;;;;7314495;19;9286;-72
2023/09/08 10:31:10;;;;;;;;;;;26.70;78.70;;;;;;7320824;19;9266;-72
2023/09/08 10:33:40;;;;;;;;;;;26.70;80.50;;;;;;7322897;19;9449;-72
2023/09/08 10:36:30;;;;;;;;;;;26.70;80.00;;;;;;7316530;19;9292;-72
2023/09/08 10:39:31;;;;;;;;;;;26.80;78.30;;;;;;7321908;19;10280;-72
2023/09/08 10:42:25;;;;;;;;;;;26.80;79.40;;;;;;7321307;19;9128;-72
2023/09/08 10:45:16;;;;;;;;;;;26.80;79.60;;;;;;7323060;19;9493;-71
2023/09/08 10:47:59;;;;;;;;;;;26.80;79.10;;;;;;7320856;19;9186;-72
2023/09/08 10:50:36;;;;;;;;;;;26.80;79.00;;;;;;7320330;19;9597;-72
2023/09/08 10:53:17;;;;;;;;;;;26.90;78.70;;;;;;7324590;19;9400;-72
2023/09/08 10:55:51;;;;;;;;;;;26.90;79.10;;;;;;7321741;19;9681;-72
2023/09/08 10:58:22;;;;;;;;;;;26.90;79.10;;;;;;7319011;19;9265;-72
2023/09/08 11:00:59;;;;;;;;;;;26.90;79.60;;;;;;7321020;19;9475;-72
2023/09/08 11:03:47;;;;;;;;;;;27.00;77.40;;;;;;7323883;19;9321;-72
2023/09/08 11:06:22;;;;;;;;;;;27.10;77.30;;;;;;7320360;19;9148;-71
2023/09/08 11:08:52;;;;;;;;;;;27.10;77.60;;;;;;7316851;19;9261;-72
2023/09/08 11:11:22;;;;;;;;;;;27.20;74.90;;;;;;7314064;19;10728;-72
2023/09/08 11:13:51;;;;;;;;;;;27.30;75.60;;;;;;7320823;19;9174;-71
2023/09/08 11:16:29;;;;;;;;;;;27.20;75.90;;;;;;7316299;19;9522;-71
2023/09/08 11:18:58;;;;;;;;;;;27.20;76.00;;;;;;7322370;19;9407;-71
2023/09/08 11:21:34;;;;;;;;;;;27.30;75.40;;;;;;7314350;19;10835;-71
2023/09/08 11:24:04;;;;;;;;;;;27.30;73.50;;;;;;7322978;19;9303;-71
2023/09/08 11:26:36;;;;;;;;;;;27.40;70.80;;;;;;7320502;19;9520;-72
2023/09/08 11:29:05;;;;;;;;;;;27.50;73.30;;;;;;7316359;19;9253;-72
2023/09/08 11:31:37;;;;;;;;;;;27.60;73.10;;;;;;7316039;19;9782;-72
2023/09/08 11:34:07;;;;;;;;;;;27.60;73.70;;;;;;7321676;19;9316;-72
2023/09/08 11:36:38;;;;;;;;;;;27.60;73.20;;;;;;7323051;19;9229;-72
2023/09/08 11:39:10;;;;;;;;;;;27.60;73.70;;;;;;7319527;19;9651;-72
2023/09/08 11:41:39;;;;;;;;;;;27.60;72.20;;;;;;7316036;19;9514;-72
2023/09/08 11:44:08;;;;;;;;;;;27.50;69.90;;;;;;7317749;19;9229;-72
2023/09/08 11:46:40;;;;;;;;;;;27.60;71.40;;;;;;7319423;19;9330;-72
2023/09/08 11:49:10;;;;;;;;;;;27.60;72.30;;;;;;7320405;19;9460;-72
2023/09/08 11:51:38;;;;;;;;;;;27.50;72.30;;;;;;7316066;19;9489;-72
2023/09/08 11:54:08;;;;;;;;;;;27.50;72.60;;;;;;7317849;19;9265;-71
2023/09/08 11:56:37;;;;;;;;;;;27.60;71.80;;;;;;7317914;19;8944;-71
2023/09/08 11:59:07;;;;;;;;;;;27.60;71.40;;;;;;7317554;19;9336;-71
2023/09/08 12:01:39;;;;;;;;;;;27.60;72.40;;;;;;7320132;19;9402;-72
2023/09/08 12:04:08;;;;;;;;;;;27.50;72.70;;;;;;7322599;19;9064;-72
2023/09/08 12:06:38;;;;;;;;;;;27.50;72.90;;;;;;7319286;19;11907;-70
2023/09/08 12:09:07;;;;;;;;;;;27.50;72.80;;;;;;7315448;19;9432;-69
2023/09/08 12:11:41;;;;;;;;;;;27.50;72.60;;;;;;7315595;19;9277;-70
2023/09/08 12:14:12;;;;;;;;;;;27.40;73.30;;;;;;7317439;19;9267;-79
2023/09/08 12:16:45;;;;;;;;;;;27.50;71.00;;;;;;7319080;19;9125;-72
2023/09/08 12:19:33;;;;;;;;;;;27.50;73.30;;;;;;7318445;19;10050;-70
2023/09/08 12:22:04;;;;;;;;;;;27.60;72.40;;;;;;7312871;19;9632;-70
2023/09/08 12:24:52;;;;;;;;;;;27.70;72.00;;;;;;7318660;19;9339;-70
2023/09/08 12:27:22;;;;;;;;;;;27.90;71.40;;;;;;7316063;19;9450;-70
2023/09/08 12:29:58;;;;;;;;;;;28.00;71.70;;;;;;7318858;19;9497;-70
2023/09/08 12:32:34;;;;;;;;;;;28.10;70.50;;;;;;7317097;19;9155;-69
2023/09/08 12:35:06;;;;;;;;;;;28.20;69.30;;;;;;7319323;19;9281;-71
2023/09/08 12:37:37;;;;;;;;;;;28.10;70.60;;;;;;7316819;19;9214;-70
2023/09/08 12:40:06;;;;;;;;;;;28.00;71.30;;;;;;7316076;19;9253;-71
2023/09/08 12:42:35;;;;;;;;;;;28.10;71.00;;;;;;7318054;19;9622;-70
2023/09/08 12:45:25;;;;;;;;;;;28.10;68.40;;;;;;7317201;19;9258;-71
2023/09/08 12:48:01;;;;;;;;;;;28.30;68.20;;;;;;7318993;19;9336;-71
2023/09/08 12:50:31;;;;;;;;;;;28.40;68.10;;;;;;7309162;19;9732;-71
2023/09/08 12:53:00;;;;;;;;;;;28.50;68.30;;;;;;7312045;19;9277;-73
2023/09/08 12:55:29;;;;;;;;;;;28.60;65.40;;;;;;7313870;19;9587;-71
2023/09/08 12:57:58;;;;;;;;;;;28.70;66.00;;;;;;7316771;19;9253;-71
2023/09/08 13:00:27;;;;;;;;;;;28.60;68.10;;;;;;7315554;19;9248;-71
2023/09/08 13:02:59;;;;;;;;;;;28.40;68.50;;;;;;7316912;19;9429;-71
2023/09/08 13:05:25;;;;;;;;;;;28.20;69.30;;;;;;7314326;19;9849;-72
2023/09/08 13:07:54;;;;;;;;;;;28.10;69.40;;;;;;7317327;19;8949;-70
2023/09/08 13:10:24;;;;;;;;;;;28.30;66.70;;;;;;7319189;19;9269;-70
2023/09/08 13:12:53;;;;;;;;;;;28.40;67.10;;;;;;7317696;19;9265;-69
2023/09/08 13:15:42;;;;;;;;;;;28.50;64.10;;;;;;7311700;19;9242;-69
2023/09/08 13:18:14;;;;;;;;;;;28.50;66.40;;;;;;7314665;19;9737;-69
2023/09/08 13:20:43;;;;;;;;;;;28.70;62.90;;;;;;7315202;19;9797;-69
2023/09/08 13:23:12;;;;;;;;;;;28.90;63.30;;;;;;7312331;19;9046;-68
2023/09/08 13:26:01;;;;;;;;;;;29.00;65.30;;;;;;7310332;19;10534;-68
2023/09/08 13:28:30;;;;;;;;;;;28.90;65.20;;;;;;7312107;19;9362;-70
2023/09/08 13:30:59;;;;;;;;;;;28.90;66.50;;;;;;7314680;19;11166;-69
2023/09/08 13:33:31;;;;;;;;;;;28.70;66.10;;;;;;7315835;19;9471;-69
2023/09/08 13:36:00;;;;;;;;;;;28.70;65.70;;;;;;7315156;19;9237;-69
2023/09/08 13:38:49;;;;;;;;;;;28.60;66.40;;;;;;7308219;19;9644;-69
2023/09/08 13:41:18;;;;;;;;;;;28.60;66.00;;;;;;7309720;19;9448;-69
2023/09/08 13:43:47;;;;;;;;;;;28.60;63.60;;;;;;7313050;19;8945;-69
2023/09/08 13:46:16;;;;;;;;;;;28.60;65.70;;;;;;7310500;19;9330;-68
2023/09/08 13:48:47;;;;;;;;;;;28.50;65.30;;;;;;7299715;19;10770;-69
2023/09/08 13:51:17;;;;;;;;;;;28.50;66.40;;;;;;7300311;19;9240;-69
2023/09/08 13:54:07;;;;;;;;;;;28.50;66.20;;;;;;7306091;19;9640;-69
2023/09/08 13:56:36;;;;;;;;;;;28.40;67.20;;;;;;7297569;19;11177;-70
2023/09/08 13:59:05;;;;;;;;;;;28.40;64.00;;;;;;7309138;19;9276;-69
2023/09/08 14:01:36;;;;;;;;;;;28.40;66.70;;;;;;7300717;19;9278;-71
2023/09/08 14:04:08;;;;;;;;;;;28.40;65.40;;;;;;7295039;19;8944;-70
2023/09/08 14:06:37;;;;;;;;;;;28.50;66.70;;;;;;7312890;19;10588;-69
2023/09/08 14:09:06;;;;;;;;;;;28.40;66.00;;;;;;7322438;19;9285;-69
2023/09/08 14:11:35;;;;;;;;;;;28.20;67.00;;;;;;7317129;19;9521;-69
2023/09/08 14:14:07;;;;;;;;;;;28.20;65.20;;;;;;7319830;19;9257;-69
2023/09/08 14:16:36;;;;;;;;;;;28.10;67.30;;;;;;7316138;19;9313;-69
2023/09/08 14:19:28;;;;;;;;;;;28.20;65.90;;;;;;7315150;19;9253;-69
2023/09/08 14:21:57;;;;;;;;;;;28.10;66.40;;;;;;7319096;19;9413;-69
2023/09/08 14:24:26;;;;;;;;;;;28.00;67.30;;;;;;7318034;19;9117;-69
2023/09/08 14:26:55;;;;;;;;;;;27.90;66.00;;;;;;7317576;19;11270;-69
2023/09/08 14:29:44;;;;;;;;;;;27.90;65.50;;;;;;7317906;19;11072;-69
2023/09/08 14:32:13;;;;;;;;;;;27.90;66.60;;;;;;7319846;19;9490;-69
2023/09/08 14:34:45;;;;;;;;;;;28.00;64.60;;;;;;7317258;19;10979;-68
2023/09/08 14:37:14;;;;;;;;;;;27.90;67.00;;;;;;7319744;19;9226;-69
2023/09/08 14:40:03;;;;;;;;;;;27.90;66.20;;;;;;7317698;19;9399;-69
2023/09/08 14:42:32;;;;;;;;;;;27.90;67.20;;;;;;7316585;19;9511;-69
2023/09/08 14:45:01;;;;;;;;;;;28.00;68.20;;;;;;7318803;19;9307;-69
2023/09/08 14:47:30;;;;;;;;;;;28.00;66.50;;;;;;7316044;19;9240;-69
2023/09/08 14:50:03;;;;;;;;;;;28.00;67.20;;;;;;7318029;19;9274;-69
2023/09/08 14:52:52;;;;;;;;;;;28.00;67.40;;;;;;7314541;19;9481;-69
2023/09/08 14:55:21;;;;;;;;;;;28.00;67.60;;;;;;7316662;19;9434;-69
2023/09/08 14:57:50;;;;;;;;;;;28.00;64.50;;;;;;7316491;19;9312;-68